createdAt,value
2023-04-08T00:00:27.205Z,8.50
2023-04-08T00:04:59.808Z,8.50
2023-04-08T00:06:56.468Z,8.90
2023-04-08T00:12:28.512Z,8.40
2023-04-08T00:14:25.526Z,8.40
2023-04-08T00:21:46.603Z,8.90
2023-04-08T00:23:16.400Z,8.20
2023-04-08T00:25:51.521Z,8.40
2023-04-08T00:32:48.330Z,8.10
2023-04-08T00:35:40.761Z,8.50
2023-04-08T00:37:39.524Z,7.70
2023-04-08T00:39:11.284Z,7.80
2023-04-08T00:40:38.827Z,7.70
2023-04-08T00:43:01.446Z,7.70
2023-04-08T00:49:24.246Z,7.10
2023-04-08T00:52:55.757Z,7.50
2023-04-08T00:54:24.823Z,7.50
2023-04-08T00:56:15.996Z,7.20
2023-04-08T01:02:20.072Z,7.20
2023-04-08T01:06:57.693Z,8.30
2023-04-08T01:13:39.094Z,6.60
2023-04-08T01:15:06.648Z,6.80
2023-04-08T01:17:51.418Z,7.30
2023-04-08T01:19:58.469Z,7.80
2023-04-08T01:21:27.368Z,7.70
2023-04-08T01:26:58.197Z,7.20
2023-04-08T01:29:50.550Z,6.90
2023-04-08T01:32:23.128Z,6.60
2023-04-08T01:34:32.641Z,6.70
2023-04-08T01:38:53.561Z,6.40
2023-04-08T01:41:24.829Z,6.20
2023-04-08T01:43:52.682Z,6.10
2023-04-08T01:46:51.031Z,6.40
2023-04-08T01:52:21.032Z,6.60
2023-04-08T01:54:10.682Z,6.10
2023-04-08T01:55:41.635Z,6.20
2023-04-08T01:58:01.516Z,6.10
2023-04-08T02:01:36.079Z,6.70
2023-04-08T02:03:06.839Z,6.20
2023-04-08T02:06:10.076Z,6.80
2023-04-08T02:08:29.709Z,7.00
2023-04-08T02:10:20.542Z,6.40
2023-04-08T02:12:19.224Z,6.40
2023-04-08T02:13:48.108Z,6.40
2023-04-08T02:16:20.842Z,5.80
2023-04-08T02:17:48.789Z,6.00
2023-04-08T02:19:48.797Z,6.60
2023-04-08T02:21:17.717Z,6.60
2023-04-08T02:23:36.532Z,6.00
2023-04-08T02:27:19.617Z,6.70
2023-04-08T02:32:09.868Z,7.80
2023-04-08T02:38:09.087Z,6.50
2023-04-08T02:42:18.868Z,6.80
2023-04-08T02:44:07.917Z,6.80
2023-04-08T02:52:52.862Z,6.40
2023-04-08T03:04:50.652Z,8.00
2023-04-08T03:08:18.560Z,7.20
2023-04-08T03:12:17.390Z,7.60
2023-04-08T03:15:14.614Z,7.10
2023-04-08T03:19:16.585Z,6.40
2023-04-08T03:21:05.624Z,6.90
2023-04-08T03:23:24.004Z,6.40
2023-04-08T03:28:59.754Z,7.10
2023-04-08T03:30:58.470Z,7.10
2023-04-08T03:35:40.387Z,7.70
2023-04-08T03:43:18.763Z,7.30
2023-04-08T03:45:46.225Z,7.10
2023-04-08T03:47:45.039Z,7.20
2023-04-08T03:49:15.744Z,6.60
2023-04-08T03:51:34.127Z,7.10
2023-04-08T03:53:21.716Z,6.80
2023-04-08T03:57:03.054Z,7.00
2023-04-08T03:59:36.407Z,7.20
2023-04-08T04:05:01.023Z,6.70
2023-04-08T04:11:37.943Z,6.90
2023-04-08T04:16:06.733Z,6.20
2023-04-08T04:18:05.874Z,6.40
2023-04-08T04:20:57.631Z,6.70
2023-04-08T04:22:30.507Z,6.80
2023-04-08T04:24:27.736Z,6.90
2023-04-08T04:32:00.996Z,6.70
2023-04-08T04:40:27.689Z,6.50
2023-04-08T04:44:36.104Z,6.50
2023-04-08T04:46:37.963Z,6.20
2023-04-08T04:48:12.912Z,5.80
2023-04-08T04:50:43.205Z,5.80
2023-04-08T04:55:04.160Z,6.30
2023-04-08T04:58:00.231Z,5.90
2023-04-08T05:01:25.081Z,5.80
2023-04-08T05:02:54.318Z,6.90
2023-04-08T05:04:51.269Z,6.30
2023-04-08T05:06:24.974Z,6.10
2023-04-08T05:11:01.141Z,7.10
2023-04-08T05:15:16.754Z,10.60
2023-04-08T05:18:39.926Z,8.30
2023-04-08T05:20:59.094Z,6.80
2023-04-08T05:22:57.231Z,7.20
2023-04-08T05:26:50.663Z,6.10
2023-04-08T05:30:29.523Z,6.50
2023-04-08T05:32:46.892Z,6.10
2023-04-08T05:36:14.623Z,6.80
2023-04-08T05:37:43.588Z,6.60
2023-04-08T05:39:46.778Z,6.30
2023-04-08T05:41:16.946Z,6.20
2023-04-08T05:44:15.185Z,6.50
2023-04-08T05:48:24.367Z,7.00
2023-04-08T05:53:49.489Z,6.50
2023-04-08T05:56:16.713Z,7.00
2023-04-08T05:58:15.623Z,6.10
2023-04-08T06:05:30.038Z,8.30
2023-04-08T06:10:13.975Z,7.20
2023-04-08T06:12:11.841Z,7.10
2023-04-08T06:13:40.746Z,7.10
2023-04-08T06:17:00.138Z,6.70
2023-04-08T06:18:32.018Z,6.50
2023-04-08T06:20:06.862Z,6.60
2023-04-08T06:24:00.658Z,7.30
2023-04-08T06:30:25.005Z,8.40
2023-04-08T06:33:14.475Z,7.70
2023-04-08T06:36:12.752Z,8.20
2023-04-08T06:37:41.610Z,8.70
2023-04-08T06:40:21.071Z,7.80
2023-04-08T06:44:17.536Z,8.30
2023-04-08T06:45:45.878Z,8.00
2023-04-08T06:50:44.321Z,8.10
2023-04-08T06:52:14.310Z,9.30
2023-04-08T06:54:40.870Z,13.80
2023-04-08T06:56:38.712Z,8.50
2023-04-08T06:59:00.494Z,8.30
2023-04-08T07:00:27.951Z,8.70
2023-04-08T07:01:57.106Z,8.50
2023-04-08T07:05:27.986Z,8.90
2023-04-08T07:06:56.950Z,9.20
2023-04-08T07:08:55.817Z,9.10
2023-04-08T07:10:45.524Z,8.70
2023-04-08T07:12:44.635Z,8.00
2023-04-08T07:25:01.267Z,9.10
2023-04-08T07:30:44.727Z,9.00
2023-04-08T07:32:16.309Z,8.30
2023-04-08T07:37:24.435Z,8.50
2023-04-08T07:43:35.329Z,8.20
2023-04-08T07:48:17.611Z,7.70
2023-04-08T07:52:09.055Z,8.40
2023-04-08T07:53:35.668Z,8.20
2023-04-08T07:58:25.520Z,9.30
2023-04-08T08:00:24.366Z,7.70
2023-04-08T08:06:36.095Z,7.20
2023-04-08T08:08:55.877Z,7.20
2023-04-08T08:10:26.369Z,8.00
2023-04-08T08:13:37.325Z,7.70
2023-04-08T08:15:26.129Z,7.40
2023-04-08T08:17:28.204Z,7.60
2023-04-08T08:21:39.642Z,7.90
2023-04-08T08:29:50.610Z,8.30
2023-04-08T08:32:21.703Z,7.40
2023-04-08T08:35:30.158Z,8.60
2023-04-08T08:37:33.353Z,8.00
2023-04-08T08:39:23.856Z,9.60
2023-04-08T08:40:32.791Z,7.80
2023-04-08T08:42:21.869Z,7.80
2023-04-08T08:47:11.765Z,7.60
2023-04-08T08:49:52.575Z,8.40
2023-04-08T08:51:23.412Z,8.50
2023-04-08T08:53:41.235Z,8.20
2023-04-08T08:56:13.458Z,8.20
2023-04-08T09:00:33.214Z,8.40
2023-04-08T09:02:03.051Z,7.40
2023-04-08T09:03:51.614Z,7.40
2023-04-08T09:05:19.917Z,7.80
2023-04-08T09:06:50.693Z,8.40
2023-04-08T09:08:43.284Z,7.30
2023-04-08T09:10:42.438Z,8.10
2023-04-08T09:12:12.694Z,7.90
2023-04-08T09:14:11.918Z,7.00
2023-04-08T09:17:27.362Z,6.80
2023-04-08T09:18:57.594Z,6.70
2023-04-08T09:21:47.127Z,6.60
2023-04-08T09:24:37.707Z,7.50
2023-04-08T09:27:30.756Z,7.20
2023-04-08T09:31:35.800Z,7.30
2023-04-08T09:32:36.538Z,7.90
2023-04-08T09:33:35.836Z,7.80
2023-04-08T09:37:04.093Z,7.80
2023-04-08T09:41:00.291Z,8.20
2023-04-08T09:47:20.935Z,8.80
2023-04-08T09:49:12.339Z,7.90
2023-04-08T09:54:16.103Z,8.30
2023-04-08T09:55:45.009Z,8.50
2023-04-08T09:57:14.949Z,8.30
2023-04-08T09:59:26.690Z,10.10
2023-04-08T10:01:48.148Z,8.40
2023-04-08T10:06:03.785Z,8.70
2023-04-08T10:07:35.570Z,9.60
2023-04-08T10:09:07.442Z,8.20
2023-04-08T10:10:53.740Z,7.90
2023-04-08T10:14:39.299Z,8.70
2023-04-08T10:21:07.029Z,8.90
2023-04-08T10:27:40.087Z,8.40
2023-04-08T10:31:27.647Z,8.10
2023-04-08T10:32:59.878Z,7.90
2023-04-08T10:34:27.726Z,8.70
2023-04-08T10:36:19.020Z,8.60
2023-04-08T10:37:48.677Z,9.40
2023-04-08T10:40:08.149Z,8.50
2023-04-08T10:42:25.398Z,8.50
2023-04-08T10:44:54.535Z,8.50
2023-04-08T10:47:23.377Z,9.40
2023-04-08T10:49:44.174Z,9.10
2023-04-08T10:51:44.780Z,8.60
2023-04-08T10:58:16.557Z,9.50
2023-04-08T11:02:23.518Z,9.00
2023-04-08T11:05:23.495Z,9.20
2023-04-08T11:07:12.294Z,10.10
2023-04-08T11:08:43.151Z,9.70
2023-04-08T11:12:10.421Z,10.60
2023-04-08T11:13:38.957Z,9.20
2023-04-08T11:15:27.695Z,9.40
2023-04-08T11:18:00.704Z,10.20
2023-04-08T11:19:28.622Z,10.40
2023-04-08T11:21:00.309Z,10.60
2023-04-08T11:22:29.290Z,10.60
2023-04-08T11:23:59.212Z,10.10
2023-04-08T11:26:26.571Z,10.90
2023-04-08T11:29:16.683Z,12.40
2023-04-08T11:31:14.935Z,11.50
2023-04-08T11:33:55.052Z,12.00
2023-04-08T11:35:44.218Z,11.20
2023-04-08T11:37:14.020Z,11.80
2023-04-08T11:40:18.410Z,12.30
2023-04-08T11:43:31.282Z,13.10
2023-04-08T11:45:01.143Z,13.40
2023-04-08T11:49:37.791Z,14.20
2023-04-08T11:51:08.133Z,14.30
2023-04-08T11:54:01.969Z,15.60
2023-04-08T11:58:34.062Z,14.70
2023-04-08T12:02:43.176Z,15.30
2023-04-08T12:05:30.720Z,14.50
2023-04-08T12:07:48.633Z,16.30
2023-04-08T12:10:20.449Z,16.10
2023-04-08T12:15:13.285Z,15.50
2023-04-08T12:18:34.175Z,15.70
2023-04-08T12:21:25.234Z,15.40
2023-04-08T12:23:00.522Z,16.10
2023-04-08T12:25:50.834Z,15.60
2023-04-08T12:29:00.229Z,15.10
2023-04-08T12:31:18.360Z,16.00
2023-04-08T12:36:42.156Z,16.20
2023-04-08T12:40:03.424Z,17.00
2023-04-08T12:42:00.697Z,22.00
2023-04-08T12:46:01.668Z,18.40
2023-04-08T12:47:59.020Z,20.00
2023-04-08T12:50:47.859Z,19.50
2023-04-08T12:53:36.719Z,19.00
2023-04-08T12:56:06.029Z,21.30
2023-04-08T12:57:53.303Z,23.70
2023-04-08T13:03:30.707Z,23.30
2023-04-08T13:05:46.388Z,23.50
2023-04-08T13:09:22.272Z,25.50
2023-04-08T13:10:23.087Z,25.60
2023-04-08T13:11:22.237Z,25.80
2023-04-08T13:13:40.989Z,25.20
2023-04-08T13:15:44.876Z,24.10
2023-04-08T13:19:03.993Z,23.50
2023-04-08T13:20:32.526Z,22.70
2023-04-08T13:25:23.319Z,24.30
2023-04-08T13:29:12.449Z,21.10
2023-04-08T13:31:12.271Z,19.60
2023-04-08T13:33:13.886Z,20.40
2023-04-08T13:35:11.791Z,20.90
2023-04-08T13:39:14.596Z,21.10
2023-04-08T13:40:48.163Z,18.20
2023-04-08T13:44:03.260Z,18.40
2023-04-08T13:46:22.899Z,18.20
2023-04-08T13:55:10.598Z,20.10
2023-04-08T13:57:31.262Z,18.90
2023-04-08T14:05:13.280Z,18.80
2023-04-08T14:09:43.133Z,18.80
2023-04-08T14:12:32.782Z,19.70
2023-04-08T14:19:37.224Z,20.00
2023-04-08T14:24:23.447Z,18.40
2023-04-08T14:26:44.484Z,19.60
2023-04-08T14:31:47.628Z,19.40
2023-04-08T14:33:37.346Z,19.20
2023-04-08T14:38:36.001Z,18.80
2023-04-08T14:40:07.638Z,19.40
2023-04-08T14:42:27.376Z,18.90
2023-04-08T14:43:56.341Z,20.20
2023-04-08T14:46:03.015Z,19.70
2023-04-08T14:48:54.102Z,20.60
2023-04-08T14:51:06.561Z,21.60
2023-04-08T14:53:56.183Z,22.40
2023-04-08T15:00:00.780Z,18.80
2023-04-08T15:01:30.490Z,22.10
2023-04-08T15:05:03.685Z,22.10
2023-04-08T15:09:12.523Z,20.90
2023-04-08T15:14:32.356Z,20.30
2023-04-08T15:16:32.957Z,20.80
2023-04-08T15:18:02.718Z,19.80
2023-04-08T15:23:36.539Z,21.30
2023-04-08T15:25:08.406Z,21.00
2023-04-08T15:26:36.427Z,21.30
2023-04-08T15:32:45.067Z,22.60
2023-04-08T15:34:13.703Z,21.90
2023-04-08T15:35:44.655Z,23.00
2023-04-08T15:37:12.605Z,21.40
2023-04-08T15:41:30.442Z,20.40
2023-04-08T15:43:58.405Z,22.20
2023-04-08T15:45:48.069Z,22.60
2023-04-08T15:47:20.570Z,23.40
2023-04-08T15:48:48.818Z,24.90
2023-04-08T15:51:16.940Z,23.40
2023-04-08T15:53:18.999Z,22.60
2023-04-08T15:56:25.442Z,23.40
2023-04-08T15:58:24.719Z,22.80
2023-04-08T15:59:54.582Z,24.20
2023-04-08T16:01:43.632Z,24.10
2023-04-08T16:03:42.325Z,23.50
2023-04-08T16:06:52.728Z,23.40
2023-04-08T16:17:16.505Z,23.70
2023-04-08T16:19:45.535Z,28.60
2023-04-08T16:23:43.283Z,29.90
2023-04-08T16:27:32.845Z,26.80
2023-04-08T16:29:20.237Z,26.60
2023-04-08T16:31:22.614Z,25.60
2023-04-08T16:33:21.268Z,26.90
2023-04-08T16:34:49.944Z,27.40
2023-04-08T16:39:26.388Z,28.60
2023-04-08T16:40:56.229Z,26.60
2023-04-08T16:45:20.070Z,28.20
2023-04-08T16:47:50.698Z,25.70
2023-04-08T16:52:39.307Z,26.40
2023-04-08T16:58:54.135Z,26.30
2023-04-08T17:01:53.661Z,26.40
2023-04-08T17:03:23.577Z,27.40
2023-04-08T17:06:23.032Z,27.10
2023-04-08T17:07:51.904Z,25.80
2023-04-08T17:10:23.792Z,27.80
2023-04-08T17:12:51.611Z,25.90
2023-04-08T17:14:41.391Z,25.90
2023-04-08T17:23:17.288Z,27.30
2023-04-08T17:25:44.711Z,26.20
2023-04-08T17:29:05.320Z,25.10
2023-04-08T17:30:35.283Z,27.30
2023-04-08T17:32:15.626Z,27.00
2023-04-08T17:33:46.193Z,26.80
2023-04-08T17:35:15.907Z,27.30
2023-04-08T17:37:56.227Z,29.10
2023-04-08T17:39:57.245Z,27.60
2023-04-08T17:48:15.212Z,27.70
2023-04-08T17:53:21.998Z,24.80
2023-04-08T17:54:53.572Z,25.60
2023-04-08T17:56:13.701Z,27.00
2023-04-08T17:59:36.011Z,28.20
2023-04-08T18:02:11.088Z,30.60
2023-04-08T18:04:29.785Z,30.00
2023-04-08T18:10:02.911Z,29.20
2023-04-08T18:11:12.041Z,29.40
2023-04-08T18:13:16.488Z,30.60
2023-04-08T18:17:46.991Z,29.60
2023-04-08T18:26:35.465Z,30.10
2023-04-08T18:29:24.286Z,30.90
2023-04-08T18:30:57.034Z,31.80
2023-04-08T18:32:44.483Z,30.10
2023-04-08T18:34:13.740Z,32.10
2023-04-08T18:36:46.792Z,32.90
2023-04-08T18:40:57.304Z,29.70
2023-04-08T18:42:25.494Z,30.50
2023-04-08T18:45:45.654Z,29.80
2023-04-08T18:48:19.159Z,30.40
2023-04-08T18:49:47.163Z,31.10
2023-04-08T18:52:27.530Z,31.90
2023-04-08T18:53:55.545Z,30.80
2023-04-08T18:56:15.728Z,32.70
2023-04-08T18:59:05.388Z,34.20
2023-04-08T19:00:57.182Z,33.40
2023-04-08T19:01:57.098Z,35.10
2023-04-08T19:02:57.041Z,35.50
2023-04-08T19:05:58.978Z,34.20
2023-04-08T19:07:26.164Z,35.10
2023-04-08T19:08:56.136Z,34.40
2023-04-08T19:13:00.666Z,34.00
2023-04-08T19:14:30.671Z,33.60
2023-04-08T19:16:50.629Z,36.00
2023-04-08T19:18:28.364Z,35.30
2023-04-08T19:23:25.454Z,36.60
2023-04-08T19:25:27.415Z,36.60
2023-04-08T19:28:15.332Z,37.50
2023-04-08T19:31:55.153Z,40.60
2023-04-08T19:34:50.908Z,41.30
2023-04-08T19:40:23.348Z,41.00
2023-04-08T19:41:50.634Z,40.80
2023-04-08T19:45:53.195Z,43.90
2023-04-08T19:49:37.882Z,43.20
2023-04-08T19:51:11.170Z,44.60
2023-04-08T19:52:41.724Z,43.60
2023-04-08T19:55:51.910Z,43.20
2023-04-08T19:58:12.784Z,45.20
2023-04-08T19:59:41.770Z,42.90
2023-04-08T20:01:13.905Z,44.30
2023-04-08T20:03:37.538Z,45.30
2023-04-08T20:05:07.582Z,46.90
2023-04-08T20:07:40.362Z,44.50
2023-04-08T20:09:12.218Z,44.70
2023-04-08T20:13:28.479Z,43.30
2023-04-08T20:15:50.278Z,49.10
2023-04-08T20:17:23.057Z,57.70
2023-04-08T20:18:53.824Z,48.50
2023-04-08T20:23:22.728Z,42.60
2023-04-08T20:28:33.592Z,37.80
2023-04-08T20:30:39.449Z,36.50
2023-04-08T20:33:49.054Z,36.50
2023-04-08T20:37:32.336Z,35.20
2023-04-08T20:43:08.365Z,33.00
2023-04-08T20:44:36.344Z,32.40
2023-04-08T20:46:41.835Z,34.20
2023-04-08T20:48:11.648Z,32.70
2023-04-08T20:52:33.952Z,31.70
2023-04-08T20:56:38.564Z,31.20
2023-04-08T20:58:09.656Z,28.90
2023-04-08T21:01:00.260Z,29.50
2023-04-08T21:03:52.030Z,30.60
2023-04-08T21:05:39.908Z,33.30
2023-04-08T21:08:05.569Z,37.10
2023-04-08T21:11:14.590Z,37.40
2023-04-08T21:13:35.837Z,42.20
2023-04-08T21:15:06.888Z,38.60
2023-04-08T21:16:39.891Z,36.70
2023-04-08T21:22:51.089Z,34.60
2023-04-08T21:25:26.035Z,33.20
2023-04-08T21:33:43.534Z,31.10
2023-04-08T21:37:09.772Z,29.60
2023-04-08T21:40:07.139Z,28.30
2023-04-08T21:42:54.889Z,29.40
2023-04-08T21:46:31.842Z,29.50
2023-04-08T21:49:05.295Z,30.50
2023-04-08T21:51:43.661Z,30.00
2023-04-08T21:56:43.492Z,30.60
2023-04-08T22:01:30.606Z,30.10
2023-04-08T22:10:42.499Z,32.90
2023-04-08T22:13:36.450Z,31.70
2023-04-08T22:17:02.787Z,33.40
2023-04-08T22:19:15.978Z,34.30
2023-04-08T22:20:25.692Z,33.00
2023-04-08T22:23:30.972Z,33.50
2023-04-08T22:25:33.245Z,36.30
2023-04-08T22:30:20.418Z,34.50
2023-04-08T22:31:49.332Z,33.50
2023-04-08T22:37:59.785Z,32.70
2023-04-08T22:39:48.088Z,34.40
2023-04-08T22:41:39.700Z,33.30
2023-04-08T22:43:11.725Z,34.30
2023-04-08T22:53:47.993Z,32.30
2023-04-08T22:57:55.917Z,33.00
2023-04-08T22:59:24.733Z,31.00
2023-04-08T23:00:56.885Z,33.40
2023-04-08T23:04:07.955Z,32.40
2023-04-08T23:09:07.114Z,32.80
2023-04-08T23:11:16.785Z,33.60
2023-04-08T23:13:34.791Z,33.70
2023-04-08T23:15:25.440Z,33.00
2023-04-08T23:20:00.167Z,31.50
2023-04-08T23:24:39.067Z,34.00
2023-04-08T23:32:07.402Z,32.70
2023-04-08T23:39:13.905Z,33.00
2023-04-08T23:41:49.805Z,33.40
2023-04-08T23:45:09.595Z,34.50
2023-04-08T23:49:52.756Z,34.00
2023-04-08T23:54:22.658Z,32.80
2023-04-08T23:55:55.567Z,33.80
2023-04-08T23:58:36.869Z,33.50
2023-04-08T23:59:13.046Z,33.20
